Kyoto Maru — JD3149 — position and weather

sailwx.info

Track history (hours):
 
Tides and Currents Weather Stations Pressure Air Temp Water Temp Dewpoint Dewpoint Depression Visibility Wind Speed Wind Dir Waves Ship Positions

Kyoto Maru

Last reported at 2017-Oct-17 05:31 UTC. Time now 2017-Oct-17 05:47 UTC.
Position N 35°28' E 139°40'.

Length 34 m; draft 3.8 m.

Type: Tug. MMSI: 431002219.

Date/timePositionNaut miles runAvg speedWind from/ knotsBaromVisibWave heightAir tempDewpointWater temp
2017-Oct-17 05:31N 35°28' E 139°40'0 0.0
2017-Oct-17 05:01N 35°28' E 139°40'0 0.0
2017-Oct-17 04:31N 35°28' E 139°40'0 0.0
2017-Oct-17 04:00N 35°28' E 139°40'1 2.1
2017-Oct-17 03:31N 35°28' E 139°41'4 8.0
2017-Oct-17 03:00N 35°30' E 139°45'1 1.4
2017-Oct-17 02:31N 35°31' E 139°46'1 1.4
2017-Oct-17 02:00N 35°30' E 139°47'2 3.8
2017-Oct-17 01:30N 35°29' E 139°48'0 0.7
2017-Oct-17 01:00N 35°29' E 139°47'1 2.3
2017-Oct-17 00:31N 35°28' E 139°47'3 5.5
2017-Oct-17 00:00N 35°27' E 139°44'3 6.6
2017-Oct-16 23:31N 35°27' E 139°40'0 0.0
2017-Oct-16 23:00N 35°27' E 139°40'0 0.0
2017-Oct-16 22:30N 35°27' E 139°40'0 0.0
2017-Oct-16 22:01N 35°27' E 139°40'0 0.0
2017-Oct-16 21:31N 35°27' E 139°40'0 0.0
2017-Oct-16 21:01N 35°27' E 139°40'0 0.0
2017-Oct-16 20:31N 35°27' E 139°40'0 0.0
2017-Oct-16 20:00N 35°27' E 139°40'0 0.0
2017-Oct-16 19:30N 35°27' E 139°40'0 0.0
2017-Oct-16 19:00N 35°27' E 139°40'0 0.0
2017-Oct-16 18:30N 35°27' E 139°40'0 0.0
2017-Oct-16 18:01N 35°27' E 139°40'0 0.0
2017-Oct-16 17:31N 35°27' E 139°40'0 0.0
2017-Oct-16 17:01N 35°27' E 139°40'0 0.0
2017-Oct-16 16:30N 35°27' E 139°40'0 0.0
2017-Oct-16 16:01N 35°27' E 139°40'0 0.0
2017-Oct-16 15:31N 35°27' E 139°40'0 0.0
2017-Oct-16 15:01N 35°27' E 139°40'0 0.0
2017-Oct-16 14:00N 35°27' E 139°40'0 0.0
2017-Oct-16 13:30N 35°27' E 139°40'0 0.0
2017-Oct-16 13:01N 35°27' E 139°40'0 0.0
2017-Oct-16 12:30N 35°27' E 139°40'0 0.0
2017-Oct-16 12:01N 35°27' E 139°40'0 0.0
2017-Oct-16 11:30N 35°27' E 139°40'0 0.0
2017-Oct-16 11:01N 35°27' E 139°40'0 0.0
2017-Oct-16 10:31N 35°27' E 139°40'0 0.0
2017-Oct-16 10:00N 35°27' E 139°40'0 0.0
2017-Oct-16 09:30N 35°27' E 139°40'0 0.0
2017-Oct-16 09:01N 35°27' E 139°40'0 0.0
2017-Oct-16 08:30N 35°27' E 139°40'0 0.0
2017-Oct-16 08:01N 35°27' E 139°40'0 0.0
2017-Oct-16 07:30N 35°27' E 139°40'0 0.0
2017-Oct-16 07:00N 35°27' E 139°40'0 0.0
2017-Oct-16 06:31N 35°27' E 139°40'0 0.0
2017-Oct-16 06:01N 35°27' E 139°40'0 0.0
2017-Oct-16 05:31N 35°27' E 139°40'0 0.0
2017-Oct-16 05:01N 35°27' E 139°40'0 0.0
2017-Oct-16 04:30N 35°27' E 139°40'0 0.0
2017-Oct-16 04:01N 35°27' E 139°40'0 0.0
2017-Oct-16 03:31N 35°27' E 139°40'0 0.0
2017-Oct-16 03:01N 35°27' E 139°40'0 0.0
2017-Oct-16 02:30N 35°27' E 139°40'0 0.0
2017-Oct-16 02:01N 35°27' E 139°40'0 0.0
2017-Oct-16 01:30N 35°27' E 139°40'0 0.0
2017-Oct-16 01:00N 35°27' E 139°40'0 0.0
2017-Oct-16 00:31N 35°27' E 139°40'0 0.0
2017-Oct-16 00:01N 35°27' E 139°40'0 0.0
2017-Oct-15 23:31N 35°27' E 139°40'0 0.0
2017-Oct-15 23:01N 35°27' E 139°40'2 4.0
2017-Oct-15 22:31N 35°25' E 139°41'0 0.5
2017-Oct-15 22:01N 35°25' E 139°41'1 1.8
2017-Oct-15 21:31N 35°25' E 139°42'2 3.4
2017-Oct-15 21:01N 35°27' E 139°42'1 1.7
2017-Oct-15 20:30N 35°27' E 139°42'0 0.0
2017-Oct-15 20:01N 35°27' E 139°42'0 0.0
2017-Oct-15 19:31N 35°27' E 139°42'0 0.0
2017-Oct-15 19:00N 35°27' E 139°42'0 0.0
2017-Oct-15 18:31N 35°27' E 139°42'0 0.0
2017-Oct-15 18:01N 35°27' E 139°42'0 0.0
2017-Oct-15 17:31N 35°27' E 139°42'0 0.0
2017-Oct-15 17:01N 35°27' E 139°42'0 0.0
2017-Oct-15 16:30N 35°27' E 139°42'0 0.0
2017-Oct-15 16:01N 35°27' E 139°42'0 0.0
2017-Oct-15 15:30N 35°27' E 139°42'0 0.0
2017-Oct-15 15:01N 35°27' E 139°42'4 4.0
2017-Oct-15 14:00N 35°30' E 139°46'0 0.3
2017-Oct-15 13:31N 35°30' E 139°46'1 2.4
2017-Oct-15 13:00N 35°29' E 139°45'0 0.0
2017-Oct-15 12:31N 35°29' E 139°45'0 0.0
2017-Oct-15 11:55N 35°29' E 139°45'1 1.8
2017-Oct-15 11:31N 35°28' E 139°45'4 8.9
2017-Oct-15 11:01N 35°27' E 139°40'3 5.7
2017-Oct-15 10:31N 35°27' E 139°43'4 7.3
2017-Oct-15 10:00N 35°30' E 139°46'1 1.5
2017-Oct-15 09:30N 35°29' E 139°46'2 4.4
2017-Oct-15 09:00N 35°27' E 139°46'3 5.1
2017-Oct-15 08:31N 35°27' E 139°43'3 5.2
2017-Oct-15 08:01N 35°27' E 139°40'0 0.0
2017-Oct-15 07:31N 35°27' E 139°40'0 0.0
2017-Oct-15 07:01N 35°27' E 139°40'0 0.0
2017-Oct-15 06:30N 35°27' E 139°40'0 0.1
2017-Oct-15 06:01N 35°27' E 139°40'0 0.1
2017-Oct-15 05:30N 35°27' E 139°40'0 0.0
2017-Oct-15 05:00N 35°27' E 139°40'0 0.0
2017-Oct-15 04:30N 35°27' E 139°40'0 0.0
2017-Oct-15 04:01N 35°27' E 139°40'0 0.1
2017-Oct-15 03:31N 35°27' E 139°40'0 0.1
2017-Oct-15 03:00N 35°27' E 139°40'0 0.0
2017-Oct-15 02:31N 35°27' E 139°40'0 0.0
2017-Oct-15 02:01N 35°27' E 139°40'0 0.4
2017-Oct-15 01:30N 35°27' E 139°39'0 0.0
2017-Oct-15 01:01N 35°27' E 139°39'0 0.0
2017-Oct-15 00:31N 35°27' E 139°39'0 0.4
2017-Oct-15 00:01N 35°27' E 139°39'1 3.0
2017-Oct-14 23:31N 35°27' E 139°41'0 0.3
2017-Oct-14 23:01N 35°27' E 139°41'2 4.2
2017-Oct-14 22:30N 35°25' E 139°43'2 3.1
2017-Oct-14 22:00N 35°26' E 139°42'2 3.6
2017-Oct-14 21:31N 35°27' E 139°40'0 0.0
2017-Oct-14 21:00N 35°27' E 139°40'0 0.0
2017-Oct-14 20:31N 35°27' E 139°40'0 0.1
2017-Oct-14 20:00N 35°27' E 139°40'0 0.1
2017-Oct-14 19:31N 35°27' E 139°40'0 0.0
2017-Oct-14 19:01N 35°27' E 139°40'0 0.0
2017-Oct-14 18:30N 35°27' E 139°40'0 0.0
2017-Oct-14 18:01N 35°27' E 139°40'0 0.0
2017-Oct-14 17:31N 35°27' E 139°40'0 0.0
2017-Oct-14 17:01N 35°27' E 139°40'0 0.1
2017-Oct-14 16:31N 35°27' E 139°40'0 0.1
2017-Oct-14 16:01N 35°27' E 139°40'0 0.1
2017-Oct-14 15:30N 35°27' E 139°40'0 0.1
2017-Oct-14 15:01N 35°27' E 139°40'0 0.0
2017-Oct-14 14:31N 35°27' E 139°40'0 0.1
2017-Oct-14 14:00N 35°27' E 139°40'0 0.0
2017-Oct-14 13:31N 35°27' E 139°40'0 0.1
2017-Oct-14 13:00N 35°27' E 139°40'0 0.0
2017-Oct-14 12:31N 35°27' E 139°40'0 0.0
2017-Oct-14 12:00N 35°27' E 139°40'0 0.0
2017-Oct-14 11:31N 35°27' E 139°40'0 0.0
2017-Oct-14 11:01N 35°27' E 139°40'0 0.0
2017-Oct-14 10:31N 35°27' E 139°40'0 0.0
2017-Oct-14 10:01N 35°27' E 139°40'0 0.0
2017-Oct-14 09:30N 35°27' E 139°40'0 0.0
2017-Oct-14 09:01N 35°27' E 139°40'0 0.0
2017-Oct-14 08:31N 35°27' E 139°40'0 0.0
2017-Oct-14 08:01N 35°27' E 139°40'0 0.0
2017-Oct-14 07:31N 35°27' E 139°40'0 0.0
2017-Oct-14 07:01N 35°27' E 139°40'0 0.0
2017-Oct-14 06:30N 35°27' E 139°40'0 0.0
2017-Oct-14 06:01N 35°27' E 139°40'0 0.0
2017-Oct-14 05:30N 35°27' E 139°40'0 0.0
2017-Oct-14 05:01N 35°27' E 139°40'0 0.0
2017-Oct-14 04:31N 35°27' E 139°40'0 0.0
2017-Oct-14 04:01N 35°27' E 139°40'0 0.0
2017-Oct-14 03:31N 35°27' E 139°40'0 0.1
2017-Oct-14 03:00N 35°27' E 139°40'0 0.1
2017-Oct-14 02:30N 35°27' E 139°40'0 0.0
2017-Oct-14 02:01N 35°27' E 139°40'0 0.0
2017-Oct-14 01:31N 35°27' E 139°40'0 0.0
2017-Oct-14 01:00N 35°27' E 139°40'0 0.0
2017-Oct-14 00:31N 35°27' E 139°40'0 0.0
2017-Oct-14 00:01N 35°27' E 139°40'1 2.0
2017-Oct-13 23:30N 35°28' E 139°40'4 8.7
2017-Oct-13 23:01N 35°30' E 139°45'2 3.0
2017-Oct-13 22:30N 35°31' E 139°46'1 3.0
2017-Oct-13 22:00N 35°30' E 139°45'3 6.1
2017-Oct-13 21:31N 35°28' E 139°42'1 2.5
2017-Oct-13 21:01N 35°27' E 139°44'3 6.8
2017-Oct-13 20:30N 35°27' E 139°40'0 0.5
2017-Oct-13 20:01N 35°27' E 139°40'0 0.0
2017-Oct-13 19:31N 35°27' E 139°40'0 0.0
2017-Oct-13 19:00N 35°27' E 139°40'0 0.0
2017-Oct-13 18:31N 35°27' E 139°40'0 0.0
2017-Oct-13 18:01N 35°27' E 139°40'0 0.0
2017-Oct-13 17:31N 35°27' E 139°40'0 0.0
2017-Oct-13 17:00N 35°27' E 139°40'0 0.0
2017-Oct-13 16:31N 35°27' E 139°40'0 0.0
2017-Oct-13 16:00N 35°27' E 139°40'0 0.0
2017-Oct-13 15:30N 35°27' E 139°40'0 0.0
2017-Oct-13 15:00N 35°27' E 139°40'0 0.0
2017-Oct-13 14:30N 35°27' E 139°40'0 0.0
2017-Oct-13 14:00N 35°27' E 139°40'0 0.0
2017-Oct-13 13:30N 35°27' E 139°40'0 0.0
2017-Oct-13 13:01N 35°27' E 139°40'0 0.0
2017-Oct-13 12:30N 35°27' E 139°40'0 0.0
2017-Oct-13 12:00N 35°27' E 139°40'0 0.0
2017-Oct-13 11:30N 35°27' E 139°40'0 0.0
2017-Oct-13 11:00N 35°27' E 139°40'0 0.0
2017-Oct-13 10:30N 35°27' E 139°40'0 0.0
2017-Oct-13 10:01N 35°27' E 139°40'0 0.0
2017-Oct-13 09:30N 35°27' E 139°40'0 0.0
2017-Oct-13 09:00N 35°27' E 139°40'0 0.7
2017-Oct-13 08:30N 35°27' E 139°40'1 2.4
2017-Oct-13 08:00N 35°26' E 139°41'2 3.0
2017-Oct-13 07:31N 35°26' E 139°43'1 1.4
2017-Oct-13 07:01N 35°27' E 139°42'2 3.8
2017-Oct-13 06:30N 35°28' E 139°40'0 0.0
2017-Oct-13 06:00N 35°28' E 139°40'0 0.0
2017-Oct-13 05:31N 35°28' E 139°40'0 0.0
2017-Oct-13 05:01N 35°28' E 139°40'0 0.0
2017-Oct-13 04:30N 35°28' E 139°40'0 0.0
2017-Oct-13 04:01N 35°28' E 139°40'0 0.0
2017-Oct-13 03:31N 35°28' E 139°40'0 0.0
2017-Oct-13 03:01N 35°28' E 139°40'0 0.0
2017-Oct-13 02:31N 35°28' E 139°40'2 3.2
2017-Oct-13 02:01N 35°27' E 139°42'4 7.2
2017-Oct-13 01:30N 35°30' E 139°46'0 0.5
2017-Oct-13 01:01N 35°29' E 139°46'2 3.7
2017-Oct-13 00:30N 35°27' E 139°46'1 1.7
2017-Oct-13 00:00N 35°27' E 139°45'4 7.7
2017-Oct-12 23:30N 35°27' E 139°41'1 2.1
2017-Oct-12 23:01N 35°27' E 139°40'0 0.0
2017-Oct-12 22:30N 35°27' E 139°40'0 0.0
2017-Oct-12 22:00N 35°27' E 139°40'0 0.0
2017-Oct-12 21:31N 35°27' E 139°40'0 0.0
2017-Oct-12 21:00N 35°27' E 139°40'0 0.0
2017-Oct-12 20:30N 35°27' E 139°40'0 0.0
2017-Oct-12 20:01N 35°27' E 139°40'0 0.0
2017-Oct-12 19:30N 35°27' E 139°40'0 0.0
2017-Oct-12 19:01N 35°27' E 139°40'0 0.0
2017-Oct-12 18:31N 35°27' E 139°40'0 0.0
2017-Oct-12 18:00N 35°27' E 139°40'0 0.0
2017-Oct-12 17:31N 35°27' E 139°40'0 0.0
2017-Oct-12 17:00N 35°27' E 139°40'0 0.0
2017-Oct-12 16:30N 35°27' E 139°40'0 0.0
2017-Oct-12 16:01N 35°27' E 139°40'0 0.0
2017-Oct-12 15:31N 35°27' E 139°40'0 0.0
2017-Oct-12 15:01N 35°27' E 139°40'0 0.0
2017-Oct-12 14:31N 35°27' E 139°40'0 0.0
2017-Oct-12 14:01N 35°27' E 139°40'0 0.0
2017-Oct-12 13:31N 35°27' E 139°40'0 0.0
2017-Oct-12 13:01N 35°27' E 139°40'0 0.0
2017-Oct-12 12:31N 35°27' E 139°40'0 0.0
2017-Oct-12 12:01N 35°27' E 139°40'0 0.0
2017-Oct-12 11:30N 35°27' E 139°40'0 0.0
2017-Oct-12 11:01N 35°27' E 139°40'0 0.0
2017-Oct-12 10:30N 35°27' E 139°40'0 0.0
2017-Oct-12 10:01N 35°27' E 139°40'0 0.0
2017-Oct-12 09:30N 35°27' E 139°40'0 0.0
2017-Oct-12 09:00N 35°27' E 139°40'0 0.0
2017-Oct-12 08:31N 35°27' E 139°40'0 0.0
2017-Oct-12 08:01N 35°27' E 139°40'0 0.0
2017-Oct-12 07:31N 35°27' E 139°40'4 7.4
2017-Oct-12 07:00N 35°29' E 139°43'3 6.0
2017-Oct-12 06:30N 35°31' E 139°46'1 2.1
2017-Oct-12 06:00N 35°30' E 139°47'2 4.0
2017-Oct-12 05:31N 35°29' E 139°46'0 0.1
2017-Oct-12 05:01N 35°29' E 139°46'1 2.8
2017-Oct-12 04:30N 35°28' E 139°44'3 6.1
2017-Oct-12 04:01N 35°28' E 139°40'0 0.0
2017-Oct-12 03:31N 35°28' E 139°40'0 0.0
2017-Oct-12 03:01N 35°28' E 139°40'0 0.0
2017-Oct-12 02:31N 35°28' E 139°40'0 0.0
2017-Oct-12 02:01N 35°28' E 139°40'0 0.0
2017-Oct-12 01:31N 35°28' E 139°40'0 0.0
2017-Oct-12 01:00N 35°28' E 139°40'0 0.0
2017-Oct-12 00:22N 35°28' E 139°40'0 0.0
2017-Oct-11 23:58N 35°28' E 139°40'0 0.0
2017-Oct-11 23:25N 35°28' E 139°40'0 0.0
2017-Oct-11 22:18N 35°28' E 139°40'2 1.9
2017-Oct-11 21:29N 35°28' E 139°42'1 1.6
2017-Oct-11 20:50N 35°27' E 139°43'1 4.4
2017-Oct-11 20:30N 35°27' E 139°41'1 0.0
2017-Oct-10 07:29N 35°27' E 139°40'0 0.0
2017-Oct-10 07:01N 35°27' E 139°40'0 0.0
2017-Oct-10 06:31N 35°27' E 139°40'0 0.0
2017-Oct-10 06:01N 35°27' E 139°40'0 0.0
2017-Oct-10 05:31N 35°27' E 139°40'0 0.0
2017-Oct-10 05:00N 35°27' E 139°40'0 0.0
2017-Oct-10 04:31N 35°27' E 139°40'0 0.0
2017-Oct-10 04:01N 35°27' E 139°40'0 0.0
2017-Oct-10 03:31N 35°27' E 139°40'0 0.0
2017-Oct-10 03:00N 35°27' E 139°40'0 0.0
2017-Oct-10 02:30N 35°27' E 139°40'0 0.0
2017-Oct-10 02:00N 35°27' E 139°40'0 0.0
2017-Oct-10 01:31N 35°27' E 139°40'0 0.0
2017-Oct-10 01:01N 35°27' E 139°40'0 0.0
2017-Oct-10 00:31N 35°27' E 139°40'0 0.0
2017-Oct-10 00:01N 35°27' E 139°40'0 0.0
2017-Oct-09 23:30N 35°27' E 139°40'1 1.1
2017-Oct-09 23:00N 35°27' E 139°39'3 5.1
2017-Oct-09 22:31N 35°28' E 139°42'1 1.6
2017-Oct-09 21:56N 35°28' E 139°43'2 4.3
2017-Oct-09 21:24N 35°26' E 139°45'3 6.3
2017-Oct-09 21:00N 35°28' E 139°42'0 0.0
2017-Oct-09 20:29N 35°28' E 139°42'0 0.0
2017-Oct-09 20:00N 35°28' E 139°42'0 0.0
2017-Oct-09 19:30N 35°28' E 139°42'0 0.0
2017-Oct-09 19:00N 35°28' E 139°42'0 0.0
2017-Oct-09 18:30N 35°28' E 139°42'0 0.0
2017-Oct-09 18:00N 35°28' E 139°42'0 0.0
2017-Oct-09 17:28N 35°28' E 139°42'0 0.0
2017-Oct-09 16:59N 35°28' E 139°42'0 0.0
2017-Oct-09 16:21N 35°28' E 139°42'1 3.7
2017-Oct-09 15:58N 35°27' E 139°41'0 0.7
2017-Oct-09 15:30N 35°26' E 139°41'1 1.3
2017-Oct-09 14:39N 35°26' E 139°42'2 9.3
2017-Oct-09 14:25N 35°23' E 139°41'1 1.6
2017-Oct-09 13:59N 35°24' E 139°41'0 0.4
2017-Oct-09 13:30N 35°24' E 139°41'1 1.4
2017-Oct-09 12:27N 35°25' E 139°42'2 4.1
2017-Oct-09 12:00N 35°24' E 139°40'2 2.6
2017-Oct-09 11:20N 35°24' E 139°38'0 0.3
2017-Oct-09 11:00N 35°24' E 139°38'3 1.4
2017-Oct-09 08:57N 35°24' E 139°42'3 7.2
2017-Oct-09 08:30N 35°27' E 139°40'1 0.0
2017-Oct-08 21:00N 35°27' E 139°40'0 0.0
2017-Oct-08 20:31N 35°27' E 139°40'0 0.0
2017-Oct-08 20:01N 35°27' E 139°40'0 0.0
2017-Oct-08 19:30N 35°27' E 139°40'0 0.0
2017-Oct-08 19:01N 35°27' E 139°40'0 0.0
2017-Oct-08 18:30N 35°27' E 139°40'0 0.0
2017-Oct-08 18:01N 35°27' E 139°40'0 0.0
2017-Oct-08 17:31N 35°27' E 139°40'0 0.0
2017-Oct-08 17:01N 35°27' E 139°40'0 0.0
2017-Oct-08 16:31N 35°27' E 139°40'0 0.0
2017-Oct-08 16:01N 35°27' E 139°40'0 0.0
2017-Oct-08 15:31N 35°27' E 139°40'0 0.0
2017-Oct-08 15:01N 35°27' E 139°40'0 0.0
2017-Oct-08 14:31N 35°27' E 139°40'0 0.0
2017-Oct-08 14:01N 35°27' E 139°40'0 0.0
2017-Oct-08 13:30N 35°27' E 139°40'0 0.0
2017-Oct-08 13:00N 35°27' E 139°40'0 0.0
2017-Oct-08 12:30N 35°27' E 139°40'0 0.0
2017-Oct-08 12:00N 35°27' E 139°40'0 0.0
2017-Oct-08 11:30N 35°27' E 139°40'0 0.0
2017-Oct-08 11:00N 35°27' E 139°40'0 0.0
2017-Oct-08 10:31N 35°27' E 139°40'0 0.0
2017-Oct-08 10:01N 35°27' E 139°40'0 0.0
2017-Oct-08 09:31N 35°27' E 139°40'0 0.0
2017-Oct-08 09:00N 35°27' E 139°40'0 0.0
2017-Oct-08 08:30N 35°27' E 139°40'0 0.0
2017-Oct-08 08:00N 35°27' E 139°40'0 0.0
2017-Oct-08 07:31N 35°27' E 139°40'0 0.0
2017-Oct-08 07:01N 35°27' E 139°40'0 0.0
2017-Oct-08 06:31N 35°27' E 139°40'0 0.0
2017-Oct-08 06:00N 35°27' E 139°40'0 0.0
2017-Oct-08 05:31N 35°27' E 139°40'0 0.0
2017-Oct-08 05:01N 35°27' E 139°40'0 0.0
2017-Oct-08 04:30N 35°27' E 139°40'2 4.6
2017-Oct-08 04:01N 35°27' E 139°42'3 6.6
2017-Oct-08 03:30N 35°29' E 139°45'1 1.3
2017-Oct-08 03:00N 35°29' E 139°45'1 2.1
2017-Oct-08 02:31N 35°28' E 139°46'2 3.6
2017-Oct-08 02:01N 35°27' E 139°44'3 6.7
2017-Oct-08 01:31N 35°27' E 139°40'0 0.0
2017-Oct-08 01:00N 35°27' E 139°40'0 0.0
2017-Oct-08 00:31N 35°27' E 139°40'0 0.0
2017-Oct-08 00:01N 35°27' E 139°40'0 0.1
2017-Oct-07 23:31N 35°27' E 139°39'4 7.4
2017-Oct-07 23:01N 35°28' E 139°44'3 6.5
2017-Oct-07 22:29N 35°30' E 139°47'1 2.2
2017-Oct-07 22:00N 35°31' E 139°46'0 0.0
2017-Oct-07 21:31N 35°31' E 139°46'5 9.9
2017-Oct-07 21:00N 35°28' E 139°41'2 3.6
2017-Oct-07 20:30N 35°27' E 139°40'0 0.0
2017-Oct-07 20:01N 35°27' E 139°40'0 0.0
2017-Oct-07 19:31N 35°27' E 139°40'0 0.0
2017-Oct-07 19:01N 35°27' E 139°40'0 0.0
2017-Oct-07 18:30N 35°27' E 139°40'0 0.0
2017-Oct-07 18:00N 35°27' E 139°40'0 0.0
2017-Oct-07 17:31N 35°27' E 139°40'0 0.0
2017-Oct-07 17:00N 35°27' E 139°40'0 0.0
2017-Oct-07 16:30N 35°27' E 139°40'0 0.0
2017-Oct-07 16:01N 35°27' E 139°40'0 0.0
2017-Oct-07 15:31N 35°27' E 139°40'0 0.0
2017-Oct-07 15:00N 35°27' E 139°40'0 0.0
2017-Oct-07 14:31N 35°27' E 139°40'0 0.0
2017-Oct-07 14:01N 35°27' E 139°40'0 0.0
2017-Oct-07 13:31N 35°27' E 139°40'0 0.0
2017-Oct-07 13:01N 35°27' E 139°40'0 0.0
2017-Oct-07 12:30N 35°27' E 139°40'0 0.0
2017-Oct-07 12:00N 35°27' E 139°40'0 0.0
2017-Oct-07 11:30N 35°27' E 139°40'0 0.0
2017-Oct-07 11:01N 35°27' E 139°40'0 0.0
2017-Oct-07 10:30N 35°27' E 139°40'0 0.0
2017-Oct-07 10:00N 35°27' E 139°40'0 0.0
2017-Oct-07 09:30N 35°27' E 139°40'0 0.0
2017-Oct-07 09:00N 35°27' E 139°40'0 0.0
2017-Oct-07 08:31N 35°27' E 139°40'0 0.0
2017-Oct-07 08:01N 35°27' E 139°40'0 0.0
2017-Oct-07 07:30N 35°27' E 139°40'0 0.0
2017-Oct-07 07:00N 35°27' E 139°40'3 6.8
2017-Oct-07 06:31N 35°28' E 139°44'2 3.9
2017-Oct-07 06:00N 35°29' E 139°45'3 5.3
2017-Oct-07 05:31N 35°27' E 139°43'  
Track history (hours):
 
Tides and Currents Weather Stations Pressure Air Temp Water Temp Dewpoint Dewpoint Depression Visibility Wind Speed Wind Dir Waves Ship Positions

Kyoto Maru

Last reported at 2017-Oct-17 05:31 UTC. Time now 2017-Oct-17 05:47 UTC.
Position N 35°28' E 139°40'.

Length 34 m; draft 3.8 m.

Type: Tug. MMSI: 431002219.

Date/timePositionNaut miles runAvg speedWind from/ knotsBaromVisibWave heightAir tempDewpointWater temp
2017-Oct-17 05:31N 35°28' E 139°40'0 0.0
2017-Oct-17 05:01N 35°28' E 139°40'0 0.0
2017-Oct-17 04:31N 35°28' E 139°40'0 0.0
2017-Oct-17 04:00N 35°28' E 139°40'1 2.1
2017-Oct-17 03:31N 35°28' E 139°41'4 8.0
2017-Oct-17 03:00N 35°30' E 139°45'1 1.4
2017-Oct-17 02:31N 35°31' E 139°46'1 1.4
2017-Oct-17 02:00N 35°30' E 139°47'2 3.8
2017-Oct-17 01:30N 35°29' E 139°48'0 0.7
2017-Oct-17 01:00N 35°29' E 139°47'1 2.3
2017-Oct-17 00:31N 35°28' E 139°47'3 5.5
2017-Oct-17 00:00N 35°27' E 139°44'3 6.6
2017-Oct-16 23:31N 35°27' E 139°40'0 0.0
2017-Oct-16 23:00N 35°27' E 139°40'0 0.0
2017-Oct-16 22:30N 35°27' E 139°40'0 0.0
2017-Oct-16 22:01N 35°27' E 139°40'0 0.0
2017-Oct-16 21:31N 35°27' E 139°40'0 0.0
2017-Oct-16 21:01N 35°27' E 139°40'0 0.0
2017-Oct-16 20:31N 35°27' E 139°40'0 0.0
2017-Oct-16 20:00N 35°27' E 139°40'0 0.0
2017-Oct-16 19:30N 35°27' E 139°40'0 0.0
2017-Oct-16 19:00N 35°27' E 139°40'0 0.0
2017-Oct-16 18:30N 35°27' E 139°40'0 0.0
2017-Oct-16 18:01N 35°27' E 139°40'0 0.0
2017-Oct-16 17:31N 35°27' E 139°40'0 0.0
2017-Oct-16 17:01N 35°27' E 139°40'0 0.0
2017-Oct-16 16:30N 35°27' E 139°40'0 0.0
2017-Oct-16 16:01N 35°27' E 139°40'0 0.0
2017-Oct-16 15:31N 35°27' E 139°40'0 0.0
2017-Oct-16 15:01N 35°27' E 139°40'0 0.0
2017-Oct-16 14:00N 35°27' E 139°40'0 0.0
2017-Oct-16 13:30N 35°27' E 139°40'0 0.0
2017-Oct-16 13:01N 35°27' E 139°40'0 0.0
2017-Oct-16 12:30N 35°27' E 139°40'0 0.0
2017-Oct-16 12:01N 35°27' E 139°40'0 0.0
2017-Oct-16 11:30N 35°27' E 139°40'0 0.0
2017-Oct-16 11:01N 35°27' E 139°40'0 0.0
2017-Oct-16 10:31N 35°27' E 139°40'0 0.0
2017-Oct-16 10:00N 35°27' E 139°40'0 0.0
2017-Oct-16 09:30N 35°27' E 139°40'0 0.0
2017-Oct-16 09:01N 35°27' E 139°40'0 0.0
2017-Oct-16 08:30N 35°27' E 139°40'0 0.0
2017-Oct-16 08:01N 35°27' E 139°40'0 0.0
2017-Oct-16 07:30N 35°27' E 139°40'0 0.0
2017-Oct-16 07:00N 35°27' E 139°40'0 0.0
2017-Oct-16 06:31N 35°27' E 139°40'0 0.0
2017-Oct-16 06:01N 35°27' E 139°40'0 0.0
2017-Oct-16 05:31N 35°27' E 139°40'0 0.0
2017-Oct-16 05:01N 35°27' E 139°40'0 0.0
2017-Oct-16 04:30N 35°27' E 139°40'0 0.0
2017-Oct-16 04:01N 35°27' E 139°40'0 0.0
2017-Oct-16 03:31N 35°27' E 139°40'0 0.0
2017-Oct-16 03:01N 35°27' E 139°40'0 0.0
2017-Oct-16 02:30N 35°27' E 139°40'0 0.0
2017-Oct-16 02:01N 35°27' E 139°40'0 0.0
2017-Oct-16 01:30N 35°27' E 139°40'0 0.0
2017-Oct-16 01:00N 35°27' E 139°40'0 0.0
2017-Oct-16 00:31N 35°27' E 139°40'0 0.0
2017-Oct-16 00:01N 35°27' E 139°40'0 0.0
2017-Oct-15 23:31N 35°27' E 139°40'0 0.0
2017-Oct-15 23:01N 35°27' E 139°40'2 4.0
2017-Oct-15 22:31N 35°25' E 139°41'0 0.5
2017-Oct-15 22:01N 35°25' E 139°41'1 1.8
2017-Oct-15 21:31N 35°25' E 139°42'2 3.4
2017-Oct-15 21:01N 35°27' E 139°42'1 1.7
2017-Oct-15 20:30N 35°27' E 139°42'0 0.0
2017-Oct-15 20:01N 35°27' E 139°42'0 0.0
2017-Oct-15 19:31N 35°27' E 139°42'0 0.0
2017-Oct-15 19:00N 35°27' E 139°42'0 0.0
2017-Oct-15 18:31N 35°27' E 139°42'0 0.0
2017-Oct-15 18:01N 35°27' E 139°42'0 0.0
2017-Oct-15 17:31N 35°27' E 139°42'0 0.0
2017-Oct-15 17:01N 35°27' E 139°42'0 0.0
2017-Oct-15 16:30N 35°27' E 139°42'0 0.0
2017-Oct-15 16:01N 35°27' E 139°42'0 0.0
2017-Oct-15 15:30N 35°27' E 139°42'0 0.0
2017-Oct-15 15:01N 35°27' E 139°42'4 4.0
2017-Oct-15 14:00N 35°30' E 139°46'0 0.3
2017-Oct-15 13:31N 35°30' E 139°46'1 2.4
2017-Oct-15 13:00N 35°29' E 139°45'0 0.0
2017-Oct-15 12:31N 35°29' E 139°45'0 0.0
2017-Oct-15 11:55N 35°29' E 139°45'1 1.8
2017-Oct-15 11:31N 35°28' E 139°45'4 8.9
2017-Oct-15 11:01N 35°27' E 139°40'3 5.7
2017-Oct-15 10:31N 35°27' E 139°43'4 7.3
2017-Oct-15 10:00N 35°30' E 139°46'1 1.5
2017-Oct-15 09:30N 35°29' E 139°46'2 4.4
2017-Oct-15 09:00N 35°27' E 139°46'3 5.1
2017-Oct-15 08:31N 35°27' E 139°43'3 5.2
2017-Oct-15 08:01N 35°27' E 139°40'0 0.0
2017-Oct-15 07:31N 35°27' E 139°40'0 0.0
2017-Oct-15 07:01N 35°27' E 139°40'0 0.0
2017-Oct-15 06:30N 35°27' E 139°40'0 0.1
2017-Oct-15 06:01N 35°27' E 139°40'0 0.1
2017-Oct-15 05:30N 35°27' E 139°40'0 0.0
2017-Oct-15 05:00N 35°27' E 139°40'0 0.0
2017-Oct-15 04:30N 35°27' E 139°40'0 0.0
2017-Oct-15 04:01N 35°27' E 139°40'0 0.1
2017-Oct-15 03:31N 35°27' E 139°40'0 0.1
2017-Oct-15 03:00N 35°27' E 139°40'0 0.0
2017-Oct-15 02:31N 35°27' E 139°40'0 0.0
2017-Oct-15 02:01N 35°27' E 139°40'0 0.4
2017-Oct-15 01:30N 35°27' E 139°39'0 0.0
2017-Oct-15 01:01N 35°27' E 139°39'0 0.0
2017-Oct-15 00:31N 35°27' E 139°39'0 0.4
2017-Oct-15 00:01N 35°27' E 139°39'1 3.0
2017-Oct-14 23:31N 35°27' E 139°41'0 0.3
2017-Oct-14 23:01N 35°27' E 139°41'2 4.2
2017-Oct-14 22:30N 35°25' E 139°43'2 3.1
2017-Oct-14 22:00N 35°26' E 139°42'2 3.6
2017-Oct-14 21:31N 35°27' E 139°40'0 0.0
2017-Oct-14 21:00N 35°27' E 139°40'0 0.0
2017-Oct-14 20:31N 35°27' E 139°40'0 0.1
2017-Oct-14 20:00N 35°27' E 139°40'0 0.1
2017-Oct-14 19:31N 35°27' E 139°40'0 0.0
2017-Oct-14 19:01N 35°27' E 139°40'0 0.0
2017-Oct-14 18:30N 35°27' E 139°40'0 0.0
2017-Oct-14 18:01N 35°27' E 139°40'0 0.0
2017-Oct-14 17:31N 35°27' E 139°40'0 0.0
2017-Oct-14 17:01N 35°27' E 139°40'0 0.1
2017-Oct-14 16:31N 35°27' E 139°40'0 0.1
2017-Oct-14 16:01N 35°27' E 139°40'0 0.1
2017-Oct-14 15:30N 35°27' E 139°40'0 0.1
2017-Oct-14 15:01N 35°27' E 139°40'0 0.0
2017-Oct-14 14:31N 35°27' E 139°40'0 0.1
2017-Oct-14 14:00N 35°27' E 139°40'0 0.0
2017-Oct-14 13:31N 35°27' E 139°40'0 0.1
2017-Oct-14 13:00N 35°27' E 139°40'0 0.0
2017-Oct-14 12:31N 35°27' E 139°40'0 0.0
2017-Oct-14 12:00N 35°27' E 139°40'0 0.0
2017-Oct-14 11:31N 35°27' E 139°40'0 0.0
2017-Oct-14 11:01N 35°27' E 139°40'0 0.0
2017-Oct-14 10:31N 35°27' E 139°40'0 0.0
2017-Oct-14 10:01N 35°27' E 139°40'0 0.0
2017-Oct-14 09:30N 35°27' E 139°40'0 0.0
2017-Oct-14 09:01N 35°27' E 139°40'0 0.0
2017-Oct-14 08:31N 35°27' E 139°40'0 0.0
2017-Oct-14 08:01N 35°27' E 139°40'0 0.0
2017-Oct-14 07:31N 35°27' E 139°40'0 0.0
2017-Oct-14 07:01N 35°27' E 139°40'0 0.0
2017-Oct-14 06:30N 35°27' E 139°40'0 0.0
2017-Oct-14 06:01N 35°27' E 139°40'0 0.0
2017-Oct-14 05:30N 35°27' E 139°40'0 0.0
2017-Oct-14 05:01N 35°27' E 139°40'0 0.0
2017-Oct-14 04:31N 35°27' E 139°40'0 0.0
2017-Oct-14 04:01N 35°27' E 139°40'0 0.0
2017-Oct-14 03:31N 35°27' E 139°40'0 0.1
2017-Oct-14 03:00N 35°27' E 139°40'0 0.1
2017-Oct-14 02:30N 35°27' E 139°40'0 0.0
2017-Oct-14 02:01N 35°27' E 139°40'0 0.0
2017-Oct-14 01:31N 35°27' E 139°40'0 0.0
2017-Oct-14 01:00N 35°27' E 139°40'0 0.0
2017-Oct-14 00:31N 35°27' E 139°40'0 0.0
2017-Oct-14 00:01N 35°27' E 139°40'1 2.0
2017-Oct-13 23:30N 35°28' E 139°40'4 8.7
2017-Oct-13 23:01N 35°30' E 139°45'2 3.0
2017-Oct-13 22:30N 35°31' E 139°46'1 3.0
2017-Oct-13 22:00N 35°30' E 139°45'3 6.1
2017-Oct-13 21:31N 35°28' E 139°42'1 2.5
2017-Oct-13 21:01N 35°27' E 139°44'3 6.8
2017-Oct-13 20:30N 35°27' E 139°40'0 0.5
2017-Oct-13 20:01N 35°27' E 139°40'0 0.0
2017-Oct-13 19:31N 35°27' E 139°40'0 0.0
2017-Oct-13 19:00N 35°27' E 139°40'0 0.0
2017-Oct-13 18:31N 35°27' E 139°40'0 0.0
2017-Oct-13 18:01N 35°27' E 139°40'0 0.0
2017-Oct-13 17:31N 35°27' E 139°40'0 0.0
2017-Oct-13 17:00N 35°27' E 139°40'0 0.0
2017-Oct-13 16:31N 35°27' E 139°40'0 0.0
2017-Oct-13 16:00N 35°27' E 139°40'0 0.0
2017-Oct-13 15:30N 35°27' E 139°40'0 0.0
2017-Oct-13 15:00N 35°27' E 139°40'0 0.0
2017-Oct-13 14:30N 35°27' E 139°40'0 0.0
2017-Oct-13 14:00N 35°27' E 139°40'0 0.0
2017-Oct-13 13:30N 35°27' E 139°40'0 0.0
2017-Oct-13 13:01N 35°27' E 139°40'0 0.0
2017-Oct-13 12:30N 35°27' E 139°40'0 0.0
2017-Oct-13 12:00N 35°27' E 139°40'0 0.0
2017-Oct-13 11:30N 35°27' E 139°40'0 0.0
2017-Oct-13 11:00N 35°27' E 139°40'0 0.0
2017-Oct-13 10:30N 35°27' E 139°40'0 0.0
2017-Oct-13 10:01N 35°27' E 139°40'0 0.0
2017-Oct-13 09:30N 35°27' E 139°40'0 0.0
2017-Oct-13 09:00N 35°27' E 139°40'0 0.7
2017-Oct-13 08:30N 35°27' E 139°40'1 2.4
2017-Oct-13 08:00N 35°26' E 139°41'2 3.0
2017-Oct-13 07:31N 35°26' E 139°43'1 1.4
2017-Oct-13 07:01N 35°27' E 139°42'2 3.8
2017-Oct-13 06:30N 35°28' E 139°40'0 0.0
2017-Oct-13 06:00N 35°28' E 139°40'0 0.0
2017-Oct-13 05:31N 35°28' E 139°40'0 0.0
2017-Oct-13 05:01N 35°28' E 139°40'0 0.0
2017-Oct-13 04:30N 35°28' E 139°40'0 0.0
2017-Oct-13 04:01N 35°28' E 139°40'0 0.0
2017-Oct-13 03:31N 35°28' E 139°40'0 0.0
2017-Oct-13 03:01N 35°28' E 139°40'0 0.0
2017-Oct-13 02:31N 35°28' E 139°40'2 3.2
2017-Oct-13 02:01N 35°27' E 139°42'4 7.2
2017-Oct-13 01:30N 35°30' E 139°46'0 0.5
2017-Oct-13 01:01N 35°29' E 139°46'2 3.7
2017-Oct-13 00:30N 35°27' E 139°46'1 1.7
2017-Oct-13 00:00N 35°27' E 139°45'4 7.7
2017-Oct-12 23:30N 35°27' E 139°41'1 2.1
2017-Oct-12 23:01N 35°27' E 139°40'0 0.0
2017-Oct-12 22:30N 35°27' E 139°40'0 0.0
2017-Oct-12 22:00N 35°27' E 139°40'0 0.0
2017-Oct-12 21:31N 35°27' E 139°40'0 0.0
2017-Oct-12 21:00N 35°27' E 139°40'0 0.0
2017-Oct-12 20:30N 35°27' E 139°40'0 0.0
2017-Oct-12 20:01N 35°27' E 139°40'0 0.0
2017-Oct-12 19:30N 35°27' E 139°40'0 0.0
2017-Oct-12 19:01N 35°27' E 139°40'0 0.0
2017-Oct-12 18:31N 35°27' E 139°40'0 0.0
2017-Oct-12 18:00N 35°27' E 139°40'0 0.0
2017-Oct-12 17:31N 35°27' E 139°40'0 0.0
2017-Oct-12 17:00N 35°27' E 139°40'0 0.0
2017-Oct-12 16:30N 35°27' E 139°40'0 0.0
2017-Oct-12 16:01N 35°27' E 139°40'0 0.0
2017-Oct-12 15:31N 35°27' E 139°40'0 0.0
2017-Oct-12 15:01N 35°27' E 139°40'0 0.0
2017-Oct-12 14:31N 35°27' E 139°40'0 0.0
2017-Oct-12 14:01N 35°27' E 139°40'0 0.0
2017-Oct-12 13:31N 35°27' E 139°40'0 0.0
2017-Oct-12 13:01N 35°27' E 139°40'0 0.0
2017-Oct-12 12:31N 35°27' E 139°40'0 0.0
2017-Oct-12 12:01N 35°27' E 139°40'0 0.0
2017-Oct-12 11:30N 35°27' E 139°40'0 0.0
2017-Oct-12 11:01N 35°27' E 139°40'0 0.0
2017-Oct-12 10:30N 35°27' E 139°40'0 0.0
2017-Oct-12 10:01N 35°27' E 139°40'0 0.0
2017-Oct-12 09:30N 35°27' E 139°40'0 0.0
2017-Oct-12 09:00N 35°27' E 139°40'0 0.0
2017-Oct-12 08:31N 35°27' E 139°40'0 0.0
2017-Oct-12 08:01N 35°27' E 139°40'0 0.0
2017-Oct-12 07:31N 35°27' E 139°40'4 7.4
2017-Oct-12 07:00N 35°29' E 139°43'3 6.0
2017-Oct-12 06:30N 35°31' E 139°46'1 2.1
2017-Oct-12 06:00N 35°30' E 139°47'2 4.0
2017-Oct-12 05:31N 35°29' E 139°46'0 0.1
2017-Oct-12 05:01N 35°29' E 139°46'1 2.8
2017-Oct-12 04:30N 35°28' E 139°44'3 6.1
2017-Oct-12 04:01N 35°28' E 139°40'0 0.0
2017-Oct-12 03:31N 35°28' E 139°40'0 0.0
2017-Oct-12 03:01N 35°28' E 139°40'0 0.0
2017-Oct-12 02:31N 35°28' E 139°40'0 0.0
2017-Oct-12 02:01N 35°28' E 139°40'0 0.0
2017-Oct-12 01:31N 35°28' E 139°40'0 0.0
2017-Oct-12 01:00N 35°28' E 139°40'0 0.0
2017-Oct-12 00:22N 35°28' E 139°40'0 0.0
2017-Oct-11 23:58N 35°28' E 139°40'0 0.0
2017-Oct-11 23:25N 35°28' E 139°40'0 0.0
2017-Oct-11 22:18N 35°28' E 139°40'2 1.9
2017-Oct-11 21:29N 35°28' E 139°42'1 1.6
2017-Oct-11 20:50N 35°27' E 139°43'1 4.4
2017-Oct-11 20:30N 35°27' E 139°41'1 0.0
2017-Oct-10 07:29N 35°27' E 139°40'0 0.0
2017-Oct-10 07:01N 35°27' E 139°40'0 0.0
2017-Oct-10 06:31N 35°27' E 139°40'0 0.0
2017-Oct-10 06:01N 35°27' E 139°40'0 0.0
2017-Oct-10 05:31N 35°27' E 139°40'0 0.0
2017-Oct-10 05:00N 35°27' E 139°40'0 0.0
2017-Oct-10 04:31N 35°27' E 139°40'0 0.0
2017-Oct-10 04:01N 35°27' E 139°40'0 0.0
2017-Oct-10 03:31N 35°27' E 139°40'0 0.0
2017-Oct-10 03:00N 35°27' E 139°40'0 0.0
2017-Oct-10 02:30N 35°27' E 139°40'0 0.0
2017-Oct-10 02:00N 35°27' E 139°40'0 0.0
2017-Oct-10 01:31N 35°27' E 139°40'0 0.0
2017-Oct-10 01:01N 35°27' E 139°40'0 0.0
2017-Oct-10 00:31N 35°27' E 139°40'0 0.0
2017-Oct-10 00:01N 35°27' E 139°40'0 0.0
2017-Oct-09 23:30N 35°27' E 139°40'1 1.1
2017-Oct-09 23:00N 35°27' E 139°39'3 5.1
2017-Oct-09 22:31N 35°28' E 139°42'1 1.6
2017-Oct-09 21:56N 35°28' E 139°43'2 4.3
2017-Oct-09 21:24N 35°26' E 139°45'3 6.3
2017-Oct-09 21:00N 35°28' E 139°42'0 0.0
2017-Oct-09 20:29N 35°28' E 139°42'0 0.0
2017-Oct-09 20:00N 35°28' E 139°42'0 0.0
2017-Oct-09 19:30N 35°28' E 139°42'0 0.0
2017-Oct-09 19:00N 35°28' E 139°42'0 0.0
2017-Oct-09 18:30N 35°28' E 139°42'0 0.0
2017-Oct-09 18:00N 35°28' E 139°42'0 0.0
2017-Oct-09 17:28N 35°28' E 139°42'0 0.0
2017-Oct-09 16:59N 35°28' E 139°42'0 0.0
2017-Oct-09 16:21N 35°28' E 139°42'1 3.7
2017-Oct-09 15:58N 35°27' E 139°41'0 0.7
2017-Oct-09 15:30N 35°26' E 139°41'1 1.3
2017-Oct-09 14:39N 35°26' E 139°42'2 9.3
2017-Oct-09 14:25N 35°23' E 139°41'1 1.6
2017-Oct-09 13:59N 35°24' E 139°41'0 0.4
2017-Oct-09 13:30N 35°24' E 139°41'1 1.4
2017-Oct-09 12:27N 35°25' E 139°42'2 4.1
2017-Oct-09 12:00N 35°24' E 139°40'2 2.6
2017-Oct-09 11:20N 35°24' E 139°38'0 0.3
2017-Oct-09 11:00N 35°24' E 139°38'3 1.4
2017-Oct-09 08:57N 35°24' E 139°42'3 7.2
2017-Oct-09 08:30N 35°27' E 139°40'1 0.0
2017-Oct-08 21:00N 35°27' E 139°40'0 0.0
2017-Oct-08 20:31N 35°27' E 139°40'0 0.0
2017-Oct-08 20:01N 35°27' E 139°40'0 0.0
2017-Oct-08 19:30N 35°27' E 139°40'0 0.0
2017-Oct-08 19:01N 35°27' E 139°40'0 0.0
2017-Oct-08 18:30N 35°27' E 139°40'0 0.0
2017-Oct-08 18:01N 35°27' E 139°40'0 0.0
2017-Oct-08 17:31N 35°27' E 139°40'0 0.0
2017-Oct-08 17:01N 35°27' E 139°40'0 0.0
2017-Oct-08 16:31N 35°27' E 139°40'0 0.0
2017-Oct-08 16:01N 35°27' E 139°40'0 0.0
2017-Oct-08 15:31N 35°27' E 139°40'0 0.0
2017-Oct-08 15:01N 35°27' E 139°40'0 0.0
2017-Oct-08 14:31N 35°27' E 139°40'0 0.0
2017-Oct-08 14:01N 35°27' E 139°40'0 0.0
2017-Oct-08 13:30N 35°27' E 139°40'0 0.0
2017-Oct-08 13:00N 35°27' E 139°40'0 0.0
2017-Oct-08 12:30N 35°27' E 139°40'0 0.0
2017-Oct-08 12:00N 35°27' E 139°40'0 0.0
2017-Oct-08 11:30N 35°27' E 139°40'0 0.0
2017-Oct-08 11:00N 35°27' E 139°40'0 0.0
2017-Oct-08 10:31N 35°27' E 139°40'0 0.0
2017-Oct-08 10:01N 35°27' E 139°40'0 0.0
2017-Oct-08 09:31N 35°27' E 139°40'0 0.0
2017-Oct-08 09:00N 35°27' E 139°40'0 0.0
2017-Oct-08 08:30N 35°27' E 139°40'0 0.0
2017-Oct-08 08:00N 35°27' E 139°40'0 0.0
2017-Oct-08 07:31N 35°27' E 139°40'0 0.0
2017-Oct-08 07:01N 35°27' E 139°40'0 0.0
2017-Oct-08 06:31N 35°27' E 139°40'0 0.0
2017-Oct-08 06:00N 35°27' E 139°40'0 0.0
2017-Oct-08 05:31N 35°27' E 139°40'0 0.0
2017-Oct-08 05:01N 35°27' E 139°40'0 0.0
2017-Oct-08 04:30N 35°27' E 139°40'2 4.6
2017-Oct-08 04:01N 35°27' E 139°42'3 6.6
2017-Oct-08 03:30N 35°29' E 139°45'1 1.3
2017-Oct-08 03:00N 35°29' E 139°45'1 2.1
2017-Oct-08 02:31N 35°28' E 139°46'2 3.6
2017-Oct-08 02:01N 35°27' E 139°44'3 6.7
2017-Oct-08 01:31N 35°27' E 139°40'0 0.0
2017-Oct-08 01:00N 35°27' E 139°40'0 0.0
2017-Oct-08 00:31N 35°27' E 139°40'0 0.0
2017-Oct-08 00:01N 35°27' E 139°40'0 0.1
2017-Oct-07 23:31N 35°27' E 139°39'4 7.4
2017-Oct-07 23:01N 35°28' E 139°44'3 6.5
2017-Oct-07 22:29N 35°30' E 139°47'1 2.2
2017-Oct-07 22:00N 35°31' E 139°46'0 0.0
2017-Oct-07 21:31N 35°31' E 139°46'5 9.9
2017-Oct-07 21:00N 35°28' E 139°41'2 3.6
2017-Oct-07 20:30N 35°27' E 139°40'0 0.0
2017-Oct-07 20:01N 35°27' E 139°40'0 0.0
2017-Oct-07 19:31N 35°27' E 139°40'0 0.0
2017-Oct-07 19:01N 35°27' E 139°40'0 0.0
2017-Oct-07 18:30N 35°27' E 139°40'0 0.0
2017-Oct-07 18:00N 35°27' E 139°40'0 0.0
2017-Oct-07 17:31N 35°27' E 139°40'0 0.0
2017-Oct-07 17:00N 35°27' E 139°40'0 0.0
2017-Oct-07 16:30N 35°27' E 139°40'0 0.0
2017-Oct-07 16:01N 35°27' E 139°40'0 0.0
2017-Oct-07 15:31N 35°27' E 139°40'0 0.0
2017-Oct-07 15:00N 35°27' E 139°40'0 0.0
2017-Oct-07 14:31N 35°27' E 139°40'0 0.0
2017-Oct-07 14:01N 35°27' E 139°40'0 0.0
2017-Oct-07 13:31N 35°27' E 139°40'0 0.0
2017-Oct-07 13:01N 35°27' E 139°40'0 0.0
2017-Oct-07 12:30N 35°27' E 139°40'0 0.0
2017-Oct-07 12:00N 35°27' E 139°40'0 0.0
2017-Oct-07 11:30N 35°27' E 139°40'0 0.0
2017-Oct-07 11:01N 35°27' E 139°40'0 0.0
2017-Oct-07 10:30N 35°27' E 139°40'0 0.0
2017-Oct-07 10:00N 35°27' E 139°40'0 0.0
2017-Oct-07 09:30N 35°27' E 139°40'0 0.0
2017-Oct-07 09:00N 35°27' E 139°40'0 0.0
2017-Oct-07 08:31N 35°27' E 139°40'0 0.0
2017-Oct-07 08:01N 35°27' E 139°40'0 0.0
2017-Oct-07 07:30N 35°27' E 139°40'0 0.0
2017-Oct-07 07:00N 35°27' E 139°40'3 6.8
2017-Oct-07 06:31N 35°28' E 139°44'2 3.9
2017-Oct-07 06:00N 35°29' E 139°45'3 5.3
2017-Oct-07 05:31N 35°27' E 139°43'  

Dump ship's entire track history